createdAt,value
2023-04-18T00:00:15.498Z,101003.09
2023-04-18T00:02:46.197Z,101004.16
2023-04-18T00:05:18.777Z,101001.38
2023-04-18T00:07:47.652Z,101001.78
2023-04-18T00:10:16.445Z,100996.41
2023-04-18T00:12:44.604Z,100998.44
2023-04-18T00:15:13.228Z,101001.38
2023-04-18T00:17:41.761Z,100999.13
2023-04-18T00:20:13.067Z,101000.53
2023-04-18T00:22:45.727Z,100984.94
2023-04-18T00:25:14.264Z,100989.22
2023-04-18T00:27:42.582Z,100995.38
2023-04-18T00:30:11.435Z,100989.13
2023-04-18T00:32:41.535Z,100990.84
2023-04-18T00:35:10.248Z,100984.41
2023-04-18T00:37:39.129Z,100973.41
2023-04-18T00:40:07.719Z,100977.28
2023-04-18T00:42:36.195Z,100983.75
2023-04-18T00:45:05.557Z,100971.38
2023-04-18T00:47:35.226Z,100980.72
2023-04-18T00:50:03.996Z,100977.06
2023-04-18T00:52:36.362Z,100975.69
2023-04-18T00:55:07.780Z,100955.97
2023-04-18T00:57:36.905Z,100967.94
2023-04-18T01:00:12.849Z,100961.31
2023-04-18T01:02:41.401Z,100962.22
2023-04-18T01:05:10.176Z,100965.75
2023-04-18T01:07:41.911Z,100960.06
2023-04-18T01:10:12.771Z,100968.97
2023-04-18T01:12:42.138Z,100969.50
2023-04-18T01:15:10.549Z,100973.91
2023-04-18T01:17:39.973Z,100967.78
2023-04-18T01:20:10.972Z,100971.56
2023-04-18T01:22:39.306Z,100972.72
2023-04-18T01:25:11.244Z,100979.09
2023-04-18T01:27:41.442Z,100978.97
2023-04-18T01:30:10.297Z,100976.63
2023-04-18T01:32:39.373Z,100973.38
2023-04-18T01:35:08.371Z,100966.63
2023-04-18T01:37:36.791Z,100970.69
2023-04-18T01:40:05.323Z,100969.53
2023-04-18T01:42:33.857Z,100969.53
2023-04-18T01:45:02.538Z,100950.03
2023-04-18T01:47:31.458Z,100947.34
2023-04-18T01:49:59.925Z,100958.97
2023-04-18T01:52:28.313Z,100947.34
2023-04-18T01:54:58.164Z,100944.00
2023-04-18T01:57:26.403Z,100955.41
2023-04-18T01:59:57.119Z,100945.84
2023-04-18T02:02:25.611Z,100949.09
2023-04-18T02:04:53.954Z,100952.41
2023-04-18T02:07:22.494Z,100956.72
2023-04-18T02:09:50.614Z,100949.28
2023-04-18T02:12:18.766Z,100943.25
2023-04-18T02:14:46.931Z,100958.34
2023-04-18T02:17:15.454Z,100938.41
2023-04-18T02:19:43.786Z,100939.41
2023-04-18T02:22:11.949Z,100947.66
2023-04-18T02:24:40.008Z,100942.81
2023-04-18T02:27:11.651Z,100944.75
2023-04-18T02:29:39.812Z,100941.63
2023-04-18T02:32:08.786Z,100952.94
2023-04-18T02:34:38.053Z,100938.53
2023-04-18T02:37:06.153Z,100934.41
2023-04-18T02:39:34.507Z,100940.09
2023-04-18T02:42:02.628Z,100940.44
2023-04-18T02:44:30.989Z,100933.75
2023-04-18T02:46:59.414Z,100936.53
2023-04-18T02:49:27.360Z,100937.06
2023-04-18T02:51:59.138Z,100940.91
2023-04-18T02:54:27.308Z,100936.09
2023-04-18T02:56:57.362Z,100936.28
2023-04-18T02:59:25.276Z,100934.03
2023-04-18T03:01:57.441Z,100939.97
2023-04-18T03:04:25.412Z,100951.25
2023-04-18T03:06:54.000Z,100955.25
2023-04-18T03:09:22.241Z,100948.16
2023-04-18T03:11:50.885Z,100940.00
2023-04-18T03:14:19.124Z,100943.53
2023-04-18T03:16:47.734Z,100936.69
2023-04-18T03:19:16.611Z,100940.44
2023-04-18T03:21:45.345Z,100935.03
2023-04-18T03:24:15.943Z,100944.09
2023-04-18T03:26:44.253Z,100938.84
2023-04-18T03:29:14.501Z,100943.25
2023-04-18T03:31:42.978Z,100954.63
2023-04-18T03:34:11.620Z,100945.72
2023-04-18T03:36:40.462Z,100952.97
2023-04-18T03:39:08.817Z,100947.66
2023-04-18T03:41:37.100Z,100946.81
2023-04-18T03:44:05.241Z,100959.88
2023-04-18T03:46:33.393Z,100962.84
2023-04-18T03:49:01.501Z,100948.66
2023-04-18T03:51:35.273Z,100937.88
2023-04-18T03:54:03.804Z,100953.28
2023-04-18T03:56:34.668Z,100938.50
2023-04-18T03:59:02.608Z,100941.41
2023-04-18T04:01:30.986Z,100939.28
2023-04-18T04:03:59.656Z,100962.25
2023-04-18T04:06:27.952Z,100949.25
2023-04-18T04:08:56.478Z,100953.75
2023-04-18T04:11:27.408Z,100947.41
2023-04-18T04:13:55.825Z,100953.81
2023-04-18T04:16:30.735Z,100942.97
2023-04-18T04:18:59.358Z,100942.66
2023-04-18T04:21:28.016Z,100948.63
2023-04-18T04:24:02.231Z,100948.69
2023-04-18T04:26:31.024Z,100954.53
2023-04-18T04:28:59.578Z,100962.84
2023-04-18T04:31:29.079Z,100959.78
2023-04-18T04:33:57.471Z,100957.19
2023-04-18T04:36:27.547Z,100959.84
2023-04-18T04:38:55.751Z,100943.84
2023-04-18T04:41:24.803Z,100948.31
2023-04-18T04:43:53.466Z,100941.53
2023-04-18T04:46:24.808Z,100960.63
2023-04-18T04:48:54.784Z,100963.19
2023-04-18T04:51:22.690Z,100968.22
2023-04-18T04:53:52.212Z,100958.25
2023-04-18T04:56:24.909Z,100958.56
2023-04-18T04:58:54.459Z,100959.09
2023-04-18T05:01:23.164Z,100958.22
2023-04-18T05:03:52.907Z,100959.44
2023-04-18T05:06:22.977Z,100959.25
2023-04-18T05:08:54.387Z,100965.41
2023-04-18T05:11:26.273Z,100979.41
2023-04-18T05:13:56.831Z,100967.13
2023-04-18T05:16:27.697Z,100968.84
2023-04-18T05:19:00.151Z,100956.72
2023-04-18T05:21:29.251Z,100960.97
2023-04-18T05:23:57.226Z,100962.47
2023-04-18T05:26:25.374Z,100963.03
2023-04-18T05:28:53.577Z,100956.53
2023-04-18T05:31:24.659Z,100958.03
2023-04-18T05:33:53.036Z,100953.63
2023-04-18T05:36:21.209Z,100960.06
2023-04-18T05:38:49.410Z,100950.19
2023-04-18T05:41:17.585Z,100945.78
2023-04-18T05:43:58.188Z,100936.50
2023-04-18T05:46:37.578Z,100933.38
2023-04-18T05:49:05.885Z,100923.69
2023-04-18T05:51:33.905Z,100920.41
2023-04-18T05:54:04.804Z,100928.75
2023-04-18T05:56:35.805Z,100922.66
2023-04-18T05:59:04.609Z,100915.63
2023-04-18T06:01:32.922Z,100926.28
2023-04-18T06:04:05.558Z,100910.13
2023-04-18T06:06:36.711Z,100921.66
2023-04-18T06:09:05.164Z,100910.50
2023-04-18T06:11:36.852Z,100910.09
2023-04-18T06:14:10.635Z,100910.91
2023-04-18T06:16:39.787Z,100907.53
2023-04-18T06:19:12.522Z,100906.47
2023-04-18T06:21:42.555Z,100897.44
2023-04-18T06:24:10.827Z,100898.63
2023-04-18T06:26:41.092Z,100901.38
2023-04-18T06:29:09.499Z,100900.50
2023-04-18T06:31:37.868Z,100900.81
2023-04-18T06:34:06.757Z,100899.34
2023-04-18T06:36:34.607Z,100899.81
2023-04-18T06:39:02.792Z,100903.34
2023-04-18T06:41:30.600Z,100907.91
2023-04-18T06:46:29.690Z,100905.81
2023-04-18T06:48:58.026Z,100901.53
2023-04-18T06:51:27.853Z,100915.34
2023-04-18T06:53:58.859Z,100906.22
2023-04-18T06:56:30.302Z,100899.25
2023-04-18T06:58:58.759Z,100888.50
2023-04-18T07:01:27.047Z,100881.59
2023-04-18T07:03:55.189Z,100885.00
2023-04-18T07:06:23.532Z,100885.81
2023-04-18T07:08:53.980Z,100893.41
2023-04-18T07:11:23.893Z,100891.09
2023-04-18T07:13:55.342Z,100885.22
2023-04-18T07:16:23.417Z,100900.84
2023-04-18T07:18:52.126Z,100899.84
2023-04-18T07:21:20.178Z,100894.22
2023-04-18T07:23:48.293Z,100878.97
2023-04-18T07:26:18.407Z,100886.59
2023-04-18T07:28:46.705Z,100884.81
2023-04-18T07:31:14.913Z,100881.41
2023-04-18T07:33:43.900Z,100884.44
2023-04-18T07:36:15.897Z,100881.47
2023-04-18T07:38:47.254Z,100882.59
2023-04-18T07:41:20.937Z,100886.59
2023-04-18T07:43:49.476Z,100873.81
2023-04-18T07:46:17.625Z,100872.16
2023-04-18T07:48:46.593Z,100870.88
2023-04-18T07:51:14.660Z,100860.72
2023-04-18T07:53:44.167Z,100877.81
2023-04-18T07:56:14.345Z,100866.81
2023-04-18T07:58:42.618Z,100870.03
2023-04-18T08:01:18.788Z,100881.22
2023-04-18T08:03:48.053Z,100873.25
2023-04-18T08:06:17.283Z,100876.88
2023-04-18T08:08:45.662Z,100877.66
2023-04-18T08:11:13.861Z,100873.78
2023-04-18T08:13:41.997Z,100855.34
2023-04-18T08:16:16.268Z,100861.63
2023-04-18T08:18:45.477Z,100860.53
2023-04-18T08:21:13.944Z,100857.66
2023-04-18T08:23:45.689Z,100851.88
2023-04-18T08:26:17.670Z,100848.91
2023-04-18T08:28:46.791Z,100855.97
2023-04-18T08:31:15.494Z,100845.38
2023-04-18T08:33:43.754Z,100846.25
2023-04-18T08:36:12.479Z,100845.28
2023-04-18T08:38:43.686Z,100847.00
2023-04-18T08:41:11.969Z,100840.59
2023-04-18T08:43:42.343Z,100848.03
2023-04-18T08:46:10.817Z,100854.84
2023-04-18T08:48:39.518Z,100854.56
2023-04-18T08:51:08.175Z,100844.50
2023-04-18T08:53:36.913Z,100850.81
2023-04-18T08:56:05.780Z,100852.66
2023-04-18T08:58:35.078Z,100853.25
2023-04-18T09:01:05.993Z,100850.84
2023-04-18T09:03:37.866Z,100846.28
2023-04-18T09:06:11.744Z,100846.59
2023-04-18T09:08:44.114Z,100864.72
2023-04-18T09:11:30.102Z,100840.44
2023-04-18T09:14:03.022Z,100846.44
2023-04-18T09:16:47.365Z,100827.31
2023-04-18T09:19:19.368Z,100835.00
2023-04-18T09:21:49.154Z,100839.72
2023-04-18T09:24:24.482Z,100832.28
2023-04-18T09:26:54.539Z,100827.44
2023-04-18T09:29:43.782Z,100827.91
2023-04-18T09:32:12.282Z,100818.56
2023-04-18T09:34:43.036Z,100819.84
2023-04-18T09:37:12.544Z,100831.56
2023-04-18T09:39:44.448Z,100832.69
2023-04-18T09:42:14.177Z,100841.25
2023-04-18T09:45:06.639Z,100826.53
2023-04-18T09:47:36.933Z,100830.66
2023-04-18T09:50:07.937Z,100831.16
2023-04-18T09:52:42.485Z,100830.53
2023-04-18T09:55:19.386Z,100845.13
2023-04-18T09:57:48.735Z,100836.31
2023-04-18T10:00:24.634Z,100828.53
2023-04-18T10:03:00.780Z,100834.25
2023-04-18T10:05:33.594Z,100852.47
2023-04-18T10:08:01.778Z,100843.72
2023-04-18T10:10:33.131Z,100838.59
2023-04-18T10:13:02.972Z,100841.03
2023-04-18T10:15:31.978Z,100841.75
2023-04-18T10:18:05.441Z,100858.38
2023-04-18T10:20:41.738Z,100862.84
2023-04-18T10:23:31.855Z,100864.84
2023-04-18T10:26:00.168Z,100868.28
2023-04-18T10:28:31.890Z,100846.22
2023-04-18T10:31:05.533Z,100839.25
2023-04-18T10:33:40.954Z,100841.94
2023-04-18T10:36:17.394Z,100841.38
2023-04-18T10:38:50.756Z,100839.25
2023-04-18T10:41:26.492Z,100843.38
2023-04-18T10:44:16.353Z,100830.28
2023-04-18T10:46:53.734Z,100810.25
2023-04-18T10:49:26.390Z,100820.38
2023-04-18T10:52:03.423Z,100815.28
2023-04-18T10:55:04.833Z,100804.47
2023-04-18T10:57:45.200Z,100801.06
2023-04-18T11:00:18.696Z,100808.16
2023-04-18T11:02:56.552Z,100806.31
2023-04-18T11:05:29.325Z,100809.94
2023-04-18T11:07:57.353Z,100808.38
2023-04-18T11:10:29.754Z,100806.88
2023-04-18T11:13:05.790Z,100818.22
2023-04-18T11:15:37.306Z,100820.34
2023-04-18T11:18:05.788Z,100821.72
2023-04-18T11:20:41.280Z,100820.69
2023-04-18T11:23:21.398Z,100817.06
2023-04-18T11:25:54.889Z,100817.41
2023-04-18T11:28:25.354Z,100811.53
2023-04-18T11:30:58.535Z,100807.03
2023-04-18T11:33:28.951Z,100810.88
2023-04-18T11:36:02.284Z,100813.31
2023-04-18T11:38:32.033Z,100818.78
2023-04-18T11:41:03.392Z,100803.72
2023-04-18T11:43:31.516Z,100810.22
2023-04-18T11:46:00.675Z,100800.00
2023-04-18T11:48:39.449Z,100794.72
2023-04-18T11:51:12.811Z,100794.72
2023-04-18T11:53:42.012Z,100797.84
2023-04-18T11:56:14.507Z,100798.50
2023-04-18T11:58:43.389Z,100797.31
2023-04-18T12:01:21.813Z,100804.50
2023-04-18T12:04:09.188Z,100799.41
2023-04-18T12:06:54.275Z,100792.69
2023-04-18T12:09:27.191Z,100793.44
2023-04-18T12:11:59.837Z,100782.88
2023-04-18T12:14:28.897Z,100785.25
2023-04-18T12:16:57.435Z,100764.28
2023-04-18T12:19:30.456Z,100762.84
2023-04-18T12:22:05.537Z,100764.84
2023-04-18T12:24:36.304Z,100757.47
2023-04-18T12:27:04.521Z,100763.81
2023-04-18T12:29:34.599Z,100756.97
2023-04-18T12:32:05.170Z,100748.81
2023-04-18T12:34:33.250Z,100756.13
2023-04-18T12:37:01.502Z,100738.09
2023-04-18T12:39:30.114Z,100746.97
2023-04-18T12:41:59.334Z,100746.75
2023-04-18T12:44:27.338Z,100744.13
2023-04-18T12:46:55.280Z,100744.13
2023-04-18T12:49:23.324Z,100750.31
2023-04-18T12:51:51.738Z,100748.69
2023-04-18T12:54:21.777Z,100759.09
2023-04-18T12:56:49.800Z,100742.31
2023-04-18T12:59:18.241Z,100750.06
2023-04-18T13:01:49.175Z,100751.72
2023-04-18T13:04:17.547Z,100755.00
2023-04-18T13:06:49.018Z,100741.53
2023-04-18T13:09:18.180Z,100736.81
2023-04-18T13:11:47.733Z,100747.63
2023-04-18T13:14:17.439Z,100752.03
2023-04-18T13:16:46.576Z,100745.66
2023-04-18T13:19:15.643Z,100746.31
2023-04-18T13:21:44.231Z,100742.81
2023-04-18T13:24:12.541Z,100751.34
2023-04-18T13:26:41.378Z,100742.72
2023-04-18T13:29:09.536Z,100740.84
2023-04-18T13:31:41.280Z,100743.88
2023-04-18T13:34:10.113Z,100744.59
2023-04-18T13:36:38.958Z,100742.84
2023-04-18T13:39:07.566Z,100756.06
2023-04-18T13:41:36.357Z,100744.59
2023-04-18T13:44:05.211Z,100749.97
2023-04-18T13:46:33.768Z,100749.41
2023-04-18T13:49:01.898Z,100741.16
2023-04-18T13:51:38.524Z,100753.22
2023-04-18T13:54:07.197Z,100750.56
2023-04-18T13:56:35.394Z,100757.09
2023-04-18T13:59:03.547Z,100749.25
2023-04-18T14:01:32.132Z,100752.81
2023-04-18T14:04:00.606Z,100755.13
2023-04-18T14:06:31.341Z,100741.63
2023-04-18T14:09:00.552Z,100748.47
2023-04-18T14:11:31.281Z,100751.28
2023-04-18T14:13:59.549Z,100753.59
2023-04-18T14:16:32.269Z,100750.09
2023-04-18T14:19:04.636Z,100731.31
2023-04-18T14:21:34.564Z,100743.03
2023-04-18T14:24:06.133Z,100741.91
2023-04-18T14:26:36.994Z,100732.59
2023-04-18T14:29:05.547Z,100739.63
2023-04-18T14:31:37.500Z,100743.47
2023-04-18T14:34:06.347Z,100735.63
2023-04-18T14:36:40.225Z,100737.63
2023-04-18T14:39:11.559Z,100732.50
2023-04-18T14:41:39.841Z,100724.50
2023-04-18T14:44:11.042Z,100725.75
2023-04-18T14:46:45.429Z,100727.91
2023-04-18T14:49:14.002Z,100719.06
2023-04-18T14:51:42.380Z,100719.19
2023-04-18T14:54:16.070Z,100721.16
2023-04-18T14:56:48.298Z,100714.34
2023-04-18T14:59:19.955Z,100709.81
2023-04-18T15:01:49.168Z,100713.44
2023-04-18T15:04:19.931Z,100706.94
2023-04-18T15:06:51.227Z,100707.66
2023-04-18T15:09:20.055Z,100705.97
2023-04-18T15:11:49.491Z,100706.56
2023-04-18T15:14:23.534Z,100713.84
2023-04-18T15:16:52.007Z,100714.88
2023-04-18T15:19:20.594Z,100724.13
2023-04-18T15:21:48.971Z,100718.44
2023-04-18T15:24:18.483Z,100719.31
2023-04-18T15:26:46.819Z,100711.16
2023-04-18T15:29:15.113Z,100718.97
2023-04-18T15:31:43.545Z,100720.53
2023-04-18T15:34:12.649Z,100722.25
2023-04-18T15:36:41.991Z,100722.97
2023-04-18T15:39:11.333Z,100719.38
2023-04-18T15:41:43.176Z,100717.84
2023-04-18T15:44:12.239Z,100710.09
2023-04-18T15:46:43.740Z,100701.13
2023-04-18T15:49:12.208Z,100710.25
2023-04-18T15:51:40.824Z,100705.84
2023-04-18T15:54:12.579Z,100705.53
2023-04-18T15:56:43.320Z,100703.84
2023-04-18T15:59:12.196Z,100695.28
2023-04-18T16:01:42.759Z,100717.22
2023-04-18T16:04:12.131Z,100708.66
2023-04-18T16:06:41.253Z,100715.50
2023-04-18T16:09:13.492Z,100712.91
2023-04-18T16:11:41.873Z,100705.22
2023-04-18T16:14:09.900Z,100708.06
2023-04-18T16:16:41.877Z,100709.91
2023-04-18T16:19:13.326Z,100713.16
2023-04-18T16:21:42.130Z,100718.28
2023-04-18T16:24:10.506Z,100709.84
2023-04-18T16:26:38.608Z,100715.09
2023-04-18T16:29:06.815Z,100705.38
2023-04-18T16:31:35.807Z,100711.19
2023-04-18T16:34:06.494Z,100704.34
2023-04-18T16:36:35.437Z,100712.75
2023-04-18T16:39:07.933Z,100712.25
2023-04-18T16:41:38.944Z,100718.38
2023-04-18T16:44:07.348Z,100718.38
2023-04-18T16:46:36.638Z,100720.88
2023-04-18T16:49:06.843Z,100723.81
2023-04-18T16:51:37.602Z,100722.28
2023-04-18T16:54:06.411Z,100722.97
2023-04-18T16:56:38.016Z,100728.88
2023-04-18T16:59:09.633Z,100725.47
2023-04-18T17:01:38.140Z,100727.16
2023-04-18T17:04:09.633Z,100736.13
2023-04-18T17:06:39.188Z,100724.97
2023-04-18T17:09:07.258Z,100747.97
2023-04-18T17:11:39.777Z,100735.84
2023-04-18T17:14:10.705Z,100734.66
2023-04-18T17:16:40.083Z,100741.53
2023-04-18T17:19:16.450Z,100731.28
2023-04-18T17:21:47.575Z,100743.31
2023-04-18T17:24:19.098Z,100738.16
2023-04-18T17:26:50.019Z,100736.59
2023-04-18T17:29:24.717Z,100736.00
2023-04-18T17:31:54.543Z,100727.53
2023-04-18T17:34:27.962Z,100730.38
2023-04-18T17:36:56.134Z,100732.06
2023-04-18T17:39:24.580Z,100734.44
2023-04-18T17:41:52.695Z,100736.16
2023-04-18T17:44:22.835Z,100723.31
2023-04-18T17:46:53.961Z,100716.69
2023-04-18T17:49:22.140Z,100716.31
2023-04-18T17:51:50.444Z,100716.59
2023-04-18T17:54:21.813Z,100720.50
2023-04-18T17:56:50.662Z,100717.19
2023-04-18T17:59:39.462Z,100721.22
2023-04-18T18:02:07.882Z,100708.13
2023-04-18T18:04:36.359Z,100710.09
2023-04-18T18:07:09.674Z,100719.53
2023-04-18T18:09:38.872Z,100712.03
2023-04-18T18:12:12.519Z,100707.75
2023-04-18T18:14:41.196Z,100704.69
2023-04-18T18:17:09.634Z,100701.53
2023-04-18T18:19:39.667Z,100708.13
2023-04-18T18:22:08.858Z,100689.88
2023-04-18T18:24:37.571Z,100693.94
2023-04-18T18:27:31.084Z,100687.16
2023-04-18T18:29:59.180Z,100690.47
2023-04-18T18:32:27.581Z,100684.47
2023-04-18T18:34:56.427Z,100683.97
2023-04-18T18:37:30.213Z,100677.94
2023-04-18T18:39:59.156Z,100675.75
2023-04-18T18:42:28.127Z,100667.28
2023-04-18T18:44:57.211Z,100664.84
2023-04-18T18:47:25.467Z,100657.72
2023-04-18T18:49:53.419Z,100663.25
2023-04-18T18:52:22.397Z,100665.22
2023-04-18T18:54:53.714Z,100661.25
2023-04-18T18:57:22.109Z,100654.38
2023-04-18T18:59:55.143Z,100653.03
2023-04-18T19:02:24.436Z,100647.50
2023-04-18T19:04:55.555Z,100650.31
2023-04-18T19:07:23.947Z,100655.19
2023-04-18T19:09:53.604Z,100651.16
2023-04-18T19:12:22.042Z,100646.97
2023-04-18T19:14:51.114Z,100651.50
2023-04-18T19:17:22.698Z,100650.41
2023-04-18T19:19:58.155Z,100648.44
2023-04-18T19:22:28.893Z,100651.53
2023-04-18T19:25:01.000Z,100655.09
2023-04-18T19:27:29.764Z,100649.06
2023-04-18T19:29:58.035Z,100648.00
2023-04-18T19:32:28.863Z,100641.84
2023-04-18T19:35:00.385Z,100641.72
2023-04-18T19:37:32.246Z,100642.59
2023-04-18T19:40:00.421Z,100640.00
2023-04-18T19:42:28.722Z,100643.19
2023-04-18T19:44:59.618Z,100640.19
2023-04-18T19:47:32.445Z,100636.13
2023-04-18T19:50:01.765Z,100632.97
2023-04-18T19:52:30.649Z,100631.13
2023-04-18T19:55:02.353Z,100632.81
2023-04-18T19:57:31.384Z,100630.84
2023-04-18T19:59:59.808Z,100626.91
2023-04-18T20:02:28.195Z,100628.03
2023-04-18T20:05:01.697Z,100625.66
2023-04-18T20:07:31.489Z,100626.28
2023-04-18T20:09:59.908Z,100627.41
2023-04-18T20:12:28.063Z,100624.09
2023-04-18T20:14:56.383Z,100622.69
2023-04-18T20:17:24.671Z,100623.94
2023-04-18T20:19:59.739Z,100613.41
2023-04-18T20:22:27.829Z,100617.41
2023-04-18T20:24:57.593Z,100615.69
2023-04-18T20:27:25.753Z,100618.75
2023-04-18T20:29:56.062Z,100610.38
2023-04-18T20:32:25.727Z,100613.56
2023-04-18T20:34:53.887Z,100608.63
2023-04-18T20:37:22.105Z,100613.28
2023-04-18T20:39:50.055Z,100610.94
2023-04-18T20:42:18.990Z,100611.63
2023-04-18T20:44:47.874Z,100603.66
2023-04-18T20:47:16.130Z,100606.69
2023-04-18T20:49:47.706Z,100603.50
2023-04-18T20:52:15.990Z,100602.00
2023-04-18T20:54:44.117Z,100596.00
2023-04-18T20:57:12.254Z,100600.00
2023-04-18T20:59:40.912Z,100594.09
2023-04-18T21:02:09.902Z,100596.19
2023-04-18T21:04:38.780Z,100591.16
2023-04-18T21:07:11.522Z,100592.56
2023-04-18T21:09:40.401Z,100585.81
2023-04-18T21:12:09.214Z,100582.34
2023-04-18T21:14:40.096Z,100583.22
2023-04-18T21:17:10.490Z,100571.72
2023-04-18T21:19:39.942Z,100572.25
2023-04-18T21:22:08.411Z,100564.41
2023-04-18T21:24:37.575Z,100577.19
2023-04-18T21:27:05.774Z,100566.91
2023-04-18T21:29:36.437Z,100564.56
2023-04-18T21:32:05.701Z,100566.47
2023-04-18T21:34:37.342Z,100571.19
2023-04-18T21:37:06.325Z,100568.50
2023-04-18T21:39:36.195Z,100553.69
2023-04-18T21:42:05.051Z,100549.66
2023-04-18T21:44:40.155Z,100550.13
2023-04-18T21:47:08.352Z,100549.09
2023-04-18T21:49:37.064Z,100550.69
2023-04-18T21:52:05.560Z,100549.56
2023-04-18T21:54:34.124Z,100546.75
2023-04-18T21:57:03.078Z,100541.50
2023-04-18T21:59:32.157Z,100538.94
2023-04-18T22:02:00.801Z,100534.19
2023-04-18T22:04:33.169Z,100530.53
2023-04-18T22:07:01.925Z,100528.69
2023-04-18T22:09:34.478Z,100532.38
2023-04-18T22:12:04.021Z,100528.38
2023-04-18T22:14:32.697Z,100521.81
2023-04-18T22:17:03.889Z,100517.50
2023-04-18T22:19:32.502Z,100526.19
2023-04-18T22:22:01.013Z,100529.66
2023-04-18T22:24:32.295Z,100521.44
2023-04-18T22:27:03.292Z,100520.47
2023-04-18T22:29:31.632Z,100507.22
2023-04-18T22:31:59.951Z,100510.44
2023-04-18T22:34:28.233Z,100511.78
2023-04-18T22:36:56.634Z,100514.25
2023-04-18T22:39:26.984Z,100512.06
2023-04-18T22:41:57.787Z,100507.28
2023-04-18T22:44:26.045Z,100506.09
2023-04-18T22:47:00.344Z,100498.84
2023-04-18T22:49:29.142Z,100500.56
2023-04-18T22:51:57.693Z,100489.56
2023-04-18T22:54:26.365Z,100484.66
2023-04-18T22:56:54.687Z,100479.91
2023-04-18T22:59:32.101Z,100484.16
2023-04-18T23:02:01.266Z,100478.53
2023-04-18T23:04:33.011Z,100471.31
2023-04-18T23:07:03.339Z,100469.63
2023-04-18T23:09:33.974Z,100469.63
2023-04-18T23:12:05.298Z,100472.06
2023-04-18T23:14:34.932Z,100460.31
2023-04-18T23:17:03.326Z,100457.75
2023-04-18T23:19:32.094Z,100460.94
2023-04-18T23:22:00.138Z,100462.03
2023-04-18T23:24:28.683Z,100459.59
2023-04-18T23:27:05.627Z,100454.56
2023-04-18T23:29:40.230Z,100450.41
2023-04-18T23:32:08.589Z,100443.31
2023-04-18T23:34:38.208Z,100444.88
2023-04-18T23:37:06.374Z,100453.19
2023-04-18T23:39:34.678Z,100445.00
2023-04-18T23:42:05.969Z,100446.47
2023-04-18T23:44:34.064Z,100443.06
2023-04-18T23:47:02.119Z,100448.56
2023-04-18T23:49:30.689Z,100451.38
2023-04-18T23:51:58.658Z,100452.38
2023-04-18T23:54:27.016Z,100436.06
2023-04-18T23:56:55.565Z,100432.53
2023-04-18T23:59:23.998Z,100429.38
